Briarwood Trace, Illinois
Current Conditions -  °F | °C
As of 11:52 PM on Tuesday 25 Nov 2014 (Local Time) from KMDH Reporting Station
Haze Haze  
Wind Chill: 23°   Ceiling: Unl
Heat Index: 23°   Visibility: 4mi
Dew Point: 20°   Wind: 0mph
Humidity: 88%   Direction: NA
Pressure: 30.18"   Gusts: NA
Location:  37.7248°N, 89.197°W
Report Text: KMDH 260552Z AUTO 00000KT 4SM BR CLR M05/M07 A3018 RMK AO2 SLP223 I6001 T10501067 11006 21050 400501050 58009
Loading
Personal Weather Stations






























Interactive Weather Map New forecast layout! Learn more

10-Day Weather Forecast

Advertisements
Track Severe Weather on mobile